Time;durP1;ratioP1;P1;durP2;ratioP2;P2;SDS_P1;SDS_P2;PMS_P1;PMS_P2;Temp;Humidity;BMP_temperature;BMP_pressure;BME280_temperature;BME280_humidity;BME280_pressure;Samples;Min_cycle;Max_cycle;Signal;HPM_P1;HPM_P2
2022/03/20 00:00:33;;;;;;;31.30;19.00;;;3.40;99.90;;;;;;5052251;28;20056;-75
2022/03/20 00:03:07;;;;;;;29.13;18.40;;;3.40;99.90;;;;;;5052069;28;20033;-75
2022/03/20 00:05:34;;;;;;;29.97;18.97;;;3.30;99.90;;;;;;5051830;28;20029;-75
2022/03/20 00:08:01;;;;;;;34.83;19.83;;;3.30;99.90;;;;;;5051911;28;20115;-75
2022/03/20 00:10:26;;;;;;;30.90;19.43;;;3.20;99.90;;;;;;5051830;28;20029;-75
2022/03/20 00:12:52;;;;;;;28.90;18.90;;;3.20;99.90;;;;;;5051890;28;20093;-75
2022/03/20 00:15:18;;;;;;;35.30;20.07;;;3.10;99.90;;;;;;5051875;28;20477;-76
2022/03/20 00:17:44;;;;;;;29.23;19.57;;;3.00;99.90;;;;;;5051865;28;20036;-75
2022/03/20 00:20:10;;;;;;;28.93;18.83;;;3.00;99.90;;;;;;5051583;28;20021;-76
2022/03/20 00:22:37;;;;;;;30.43;18.77;;;2.90;99.90;;;;;;5051895;28;20681;-75
2022/03/20 00:25:04;;;;;;;30.90;19.47;;;2.90;99.90;;;;;;5051585;28;20049;-76
2022/03/20 00:27:29;;;;;;;25.37;17.97;;;2.90;99.90;;;;;;5050618;28;20365;-77
2022/03/20 00:29:55;;;;;;;29.40;19.57;;;2.90;99.90;;;;;;5052827;28;20104;-77
2022/03/20 00:32:20;;;;;;;33.43;19.83;;;2.80;99.90;;;;;;5052317;28;20095;-77
2022/03/20 00:34:46;;;;;;;28.93;17.57;;;2.80;99.90;;;;;;5052270;28;20017;-77
2022/03/20 00:37:12;;;;;;;32.17;18.57;;;2.70;99.90;;;;;;5052298;28;20033;-76
2022/03/20 00:39:38;;;;;;;30.57;19.73;;;2.70;99.90;;;;;;5052188;28;20067;-76
2022/03/20 00:42:04;;;;;;;27.73;18.37;;;2.80;99.90;;;;;;5052251;28;20381;-75
2022/03/20 00:44:31;;;;;;;30.47;19.20;;;2.70;99.90;;;;;;5052089;28;20028;-75
2022/03/20 00:46:57;;;;;;;27.60;16.93;;;2.70;99.90;;;;;;5051928;28;20049;-76
2022/03/20 00:49:22;;;;;;;32.17;20.47;;;2.60;99.90;;;;;;5052640;28;20422;-75
2022/03/20 00:51:48;;;;;;;27.80;19.07;;;2.50;99.90;;;;;;5052202;28;20021;-76
2022/03/20 00:54:13;;;;;;;29.80;19.60;;;2.50;99.90;;;;;;5053479;28;20025;-76
2022/03/20 00:56:39;;;;;;;29.33;19.27;;;2.40;99.90;;;;;;5056084;28;20103;-76
2022/03/20 00:59:05;;;;;;;32.20;18.47;;;2.30;99.90;;;;;;5055714;28;20113;-76
2022/03/20 01:01:32;;;;;;;29.70;18.37;;;2.30;99.90;;;;;;5055627;28;20465;-76
2022/03/20 01:03:58;;;;;;;28.13;18.73;;;2.50;99.90;;;;;;5055671;28;20393;-76
2022/03/20 01:06:24;;;;;;;28.77;18.03;;;2.40;99.90;;;;;;5055493;28;20071;-75
2022/03/20 01:08:50;;;;;;;29.10;19.17;;;2.40;99.90;;;;;;5055613;28;20162;-75
2022/03/20 01:11:17;;;;;;;29.60;18.03;;;2.30;99.90;;;;;;5055424;28;20358;-75
2022/03/20 01:13:43;;;;;;;30.07;19.33;;;2.30;99.90;;;;;;5053981;28;20055;-75
2022/03/20 01:16:09;;;;;;;29.27;18.10;;;2.30;99.90;;;;;;5055542;28;20029;-75
2022/03/20 01:18:35;;;;;;;30.40;19.07;;;2.20;99.90;;;;;;5055302;28;20371;-75
2022/03/20 01:21:00;;;;;;;28.73;18.70;;;2.20;99.90;;;;;;5055542;28;20354;-75
2022/03/20 01:23:26;;;;;;;29.43;18.60;;;2.20;99.90;;;;;;5053869;28;20051;-76
2022/03/20 01:25:52;;;;;;;32.50;18.93;;;2.20;99.90;;;;;;5053863;28;20028;-76
2022/03/20 01:28:19;;;;;;;29.90;19.17;;;2.10;99.90;;;;;;5055042;28;20024;-76
2022/03/20 01:30:45;;;;;;;33.43;18.33;;;2.00;99.90;;;;;;5055842;28;20032;-76
2022/03/20 01:33:11;;;;;;;33.57;19.50;;;2.00;99.90;;;;;;5054865;28;20021;-76
2022/03/20 01:35:36;;;;;;;29.63;19.83;;;2.00;99.90;;;;;;5055261;28;20067;-77
2022/03/20 01:38:03;;;;;;;28.17;18.67;;;1.90;99.90;;;;;;5054869;28;20071;-76
2022/03/20 01:40:28;;;;;;;29.10;18.63;;;1.90;99.90;;;;;;5054824;28;20424;-76
2022/03/20 01:42:54;;;;;;;29.23;18.97;;;1.80;99.90;;;;;;5055023;28;20029;-76
2022/03/20 01:45:22;;;;;;;30.93;19.33;;;1.80;99.90;;;;;;5053468;28;20053;-76
2022/03/20 01:47:49;;;;;;;30.37;18.77;;;1.80;99.90;;;;;;5054507;28;20048;-77
2022/03/20 01:50:32;;;;;;;29.67;19.17;;;1.70;99.90;;;;;;5055264;28;20028;-76
2022/03/20 01:52:58;;;;;;;30.43;19.23;;;1.80;99.90;;;;;;5054800;28;20043;-77
2022/03/20 01:55:24;;;;;;;28.37;18.70;;;1.80;99.90;;;;;;5054414;28;20017;-76
2022/03/20 01:57:51;;;;;;;32.00;18.93;;;1.70;99.90;;;;;;5054695;28;20028;-76
2022/03/20 02:00:20;;;;;;;30.47;18.27;;;1.70;99.90;;;;;;5054479;28;20166;-76
2022/03/20 02:02:46;;;;;;;29.03;18.63;;;1.70;99.90;;;;;;5054576;28;20100;-77
2022/03/20 02:05:12;;;;;;;32.27;19.33;;;1.70;99.90;;;;;;5054492;28;20115;-76
2022/03/20 02:07:40;;;;;;;31.37;19.13;;;1.60;99.90;;;;;;5054653;28;20458;-76
2022/03/20 02:10:06;;;;;;;31.67;19.00;;;1.70;99.90;;;;;;5053132;28;20359;-76
2022/03/20 02:12:32;;;;;;;32.07;19.83;;;1.70;99.90;;;;;;5054444;28;20402;-77
2022/03/20 02:15:01;;;;;;;31.10;19.90;;;1.70;99.90;;;;;;5054688;28;20021;-76
2022/03/20 02:17:30;;;;;;;28.27;18.27;;;1.70;99.90;;;;;;5054407;28;20021;-76
2022/03/20 02:20:03;;;;;;;31.73;18.67;;;1.70;99.90;;;;;;5053401;28;20366;-74
2022/03/20 02:22:30;;;;;;;36.87;19.93;;;1.80;99.90;;;;;;5054548;28;20021;-76
2022/03/20 02:24:55;;;;;;;36.30;18.93;;;1.80;99.90;;;;;;5054472;28;20029;-76
2022/03/20 02:27:27;;;;;;;27.43;18.20;;;1.90;99.90;;;;;;5053998;28;20028;-76
2022/03/20 02:29:57;;;;;;;32.27;19.13;;;1.90;99.90;;;;;;5052633;28;20384;-76
2022/03/20 02:32:28;;;;;;;31.37;19.27;;;1.70;99.90;;;;;;5044442;28;20022;-76
2022/03/20 02:34:56;;;;;;;30.93;18.57;;;1.60;99.90;;;;;;5050456;28;20104;-76
2022/03/20 02:37:23;;;;;;;37.23;20.67;;;1.50;99.90;;;;;;5052837;28;20025;-76
2022/03/20 02:39:50;;;;;;;37.10;20.17;;;1.30;99.90;;;;;;5053850;28;20075;-76
2022/03/20 02:42:16;;;;;;;35.50;19.93;;;1.20;99.90;;;;;;5053622;28;20017;-76
2022/03/20 02:44:57;;;;;;;35.07;20.77;;;1.20;99.90;;;;;;5053010;28;20033;-76
2022/03/20 02:47:25;;;;;;;29.80;19.47;;;1.00;99.90;;;;;;5053905;28;20412;-76
2022/03/20 02:49:59;;;;;;;32.10;19.80;;;1.00;99.90;;;;;;5053736;28;20089;-75
2022/03/20 02:52:30;;;;;;;33.70;20.50;;;0.90;99.90;;;;;;5053609;28;20408;-74
2022/03/20 02:55:02;;;;;;;34.23;20.57;;;0.90;99.90;;;;;;5053203;28;20051;-74
2022/03/20 02:57:32;;;;;;;30.27;18.80;;;0.80;99.90;;;;;;5051835;28;20028;-75
2022/03/20 03:00:03;;;;;;;32.27;19.23;;;0.80;99.90;;;;;;5039631;28;20057;-74
2022/03/20 03:02:30;;;;;;;31.30;19.57;;;0.70;99.90;;;;;;5033308;28;20045;-74
2022/03/20 03:04:57;;;;;;;32.23;19.60;;;0.70;99.90;;;;;;5064660;28;20444;-74
2022/03/20 03:07:23;;;;;;;29.40;20.00;;;0.80;99.90;;;;;;5033368;28;20053;-74
2022/03/20 03:12:33;;;;;;;29.87;18.47;;;0.90;99.90;;;;;;5048760;28;20099;-74
2022/03/20 03:17:42;;;;;;;31.80;18.80;;;0.90;99.90;;;;;;5052799;28;20067;-75
2022/03/20 03:20:08;;;;;;;30.17;18.87;;;0.90;99.90;;;;;;5052888;28;20033;-75
2022/03/20 03:22:34;;;;;;;31.57;19.83;;;0.90;99.90;;;;;;5052622;28;20033;-75
2022/03/20 03:24:59;;;;;;;29.50;18.80;;;0.90;99.90;;;;;;5052830;28;20080;-76
2022/03/20 03:27:25;;;;;;;31.73;19.73;;;0.80;99.90;;;;;;5051647;28;20112;-75
2022/03/20 03:29:51;;;;;;;34.07;20.50;;;0.80;99.90;;;;;;5052751;28;20025;-75
2022/03/20 03:32:20;;;;;;;32.57;20.37;;;0.80;99.90;;;;;;5052586;28;20017;-75
2022/03/20 03:37:32;;;;;;;30.67;19.00;;;0.70;99.90;;;;;;5033189;28;20071;-75
2022/03/20 03:39:58;;;;;;;28.93;19.37;;;0.60;99.90;;;;;;5039095;28;20028;-75
2022/03/20 03:42:24;;;;;;;31.47;19.17;;;0.60;99.90;;;;;;5052608;28;20108;-75
2022/03/20 03:44:51;;;;;;;30.47;19.50;;;0.60;99.90;;;;;;5050847;28;20112;-75
2022/03/20 03:47:17;;;;;;;29.67;19.07;;;0.50;99.90;;;;;;5050624;28;20519;-76
2022/03/20 03:49:42;;;;;;;31.57;19.57;;;0.50;99.90;;;;;;5052087;28;20021;-75
2022/03/20 03:52:08;;;;;;;33.70;19.33;;;0.40;99.90;;;;;;5032132;28;20431;-76
2022/03/20 03:54:33;;;;;;;33.03;20.13;;;0.40;99.90;;;;;;5035638;28;20029;-75
2022/03/20 03:56:59;;;;;;;31.63;20.33;;;0.40;99.90;;;;;;5051021;28;20036;-76
2022/03/20 03:59:25;;;;;;;30.37;19.23;;;0.30;99.90;;;;;;5052371;28;20025;-76
2022/03/20 04:01:50;;;;;;;29.73;19.63;;;0.20;99.90;;;;;;5052209;28;20469;-75
2022/03/20 04:04:16;;;;;;;32.97;21.43;;;0.20;99.90;;;;;;5050583;28;20478;-76
2022/03/20 04:06:42;;;;;;;29.23;19.57;;;0.20;99.90;;;;;;5052144;28;20036;-75
2022/03/20 04:09:08;;;;;;;36.17;21.33;;;0.20;99.90;;;;;;5051881;28;20021;-76
2022/03/20 04:11:34;;;;;;;32.93;19.97;;;0.10;99.90;;;;;;5050924;28;20055;-75
2022/03/20 04:13:59;;;;;;;46.37;21.80;;;0.10;99.90;;;;;;5052473;28;20351;-75
2022/03/20 04:16:25;;;;;;;71.27;21.87;;;0.10;99.90;;;;;;5050901;28;20541;-75
2022/03/20 04:18:53;;;;;;;57.33;22.13;;;0.00;99.90;;;;;;5052476;28;20025;-76
2022/03/20 04:21:19;;;;;;;55.83;20.50;;;0.00;99.90;;;;;;5052229;28;20029;-75
2022/03/20 04:23:49;;;;;;;49.63;19.30;;;0.00;99.90;;;;;;5052263;28;20033;-76
2022/03/20 04:26:20;;;;;;;39.57;20.47;;;0.00;99.90;;;;;;5052106;28;20033;-75
2022/03/20 04:28:47;;;;;;;43.63;20.17;;;0.00;99.90;;;;;;5052991;28;20025;-75
2022/03/20 04:31:16;;;;;;;34.80;20.03;;;0.00;99.90;;;;;;5055928;28;20021;-75
2022/03/20 04:33:49;;;;;;;35.53;19.93;;;0.00;99.90;;;;;;5055910;28;20507;-75
2022/03/20 04:36:15;;;;;;;37.90;19.70;;;-0.10;99.90;;;;;;5056032;28;20025;-75
2022/03/20 04:38:41;;;;;;;37.03;19.83;;;-0.10;99.90;;;;;;5056016;28;20032;-75
2022/03/20 04:41:06;;;;;;;36.33;20.20;;;-0.20;99.90;;;;;;5055902;28;20017;-75
2022/03/20 04:43:32;;;;;;;33.67;20.97;;;-0.30;99.90;;;;;;5055575;28;20377;-76
2022/03/20 04:45:59;;;;;;;32.80;21.23;;;-0.30;99.90;;;;;;5055255;28;20045;-76
2022/03/20 04:59:20;;;;;;;33.73;20.60;;;-0.50;99.90;;;;;;5055814;28;20547;-75
2022/03/20 05:01:46;;;;;;;34.77;20.70;;;-0.50;99.90;;;;;;5055519;28;20064;-75
2022/03/20 05:04:13;;;;;;;34.50;20.10;;;-0.50;99.90;;;;;;5055450;28;20470;-76
2022/03/20 05:06:39;;;;;;;32.10;19.20;;;-0.60;99.90;;;;;;5055653;28;20025;-76
2022/03/20 05:14:33;;;;;;;49.77;29.93;;;-0.60;99.90;;;;;;5055102;28;20040;-74
2022/03/20 05:16:59;;;;;;;42.37;25.77;;;-0.60;99.90;;;;;;5053823;28;20021;-74
2022/03/20 05:19:25;;;;;;;34.37;20.77;;;-0.60;99.90;;;;;;5055437;28;20478;-74
2022/03/20 05:21:51;;;;;;;34.47;20.83;;;-0.70;99.90;;;;;;5054839;28;20029;-74
2022/03/20 05:24:17;;;;;;;41.30;22.97;;;-0.70;99.90;;;;;;5055494;28;20373;-75
2022/03/20 05:26:43;;;;;;;36.70;20.80;;;-0.60;99.90;;;;;;5054533;28;20064;-75
2022/03/20 05:29:08;;;;;;;34.53;21.30;;;-0.60;99.90;;;;;;5053674;28;20052;-77
2022/03/20 05:31:34;;;;;;;37.93;21.73;;;-0.60;99.90;;;;;;5053277;28;20389;-75
2022/03/20 05:34:00;;;;;;;35.83;21.43;;;-0.60;99.90;;;;;;5054586;28;20021;-75
2022/03/20 05:36:29;;;;;;;37.63;22.87;;;-0.60;99.90;;;;;;5054102;28;20021;-75
2022/03/20 05:38:56;;;;;;;38.60;22.97;;;-0.60;99.90;;;;;;5053066;28;20052;-74
2022/03/20 05:44:06;;;;;;;34.17;21.43;;;-0.60;99.90;;;;;;5039273;28;20099;-74
2022/03/20 05:46:31;;;;;;;38.70;22.03;;;-0.50;99.90;;;;;;5055476;28;20045;-75
2022/03/20 05:48:57;;;;;;;36.63;22.67;;;-0.50;99.90;;;;;;5065890;28;20487;-75
2022/03/20 05:51:23;;;;;;;39.80;24.37;;;-0.40;99.90;;;;;;5064325;28;20021;-75
2022/03/20 05:53:49;;;;;;;41.57;25.37;;;-0.40;99.90;;;;;;5054242;28;20059;-74
2022/03/20 05:58:58;;;;;;;38.77;22.70;;;-0.20;99.90;;;;;;5058468;28;20027;-75
2022/03/20 06:01:24;;;;;;;39.53;24.60;;;-0.20;99.90;;;;;;5053757;28;20021;-75
2022/03/20 06:03:50;;;;;;;37.47;23.07;;;-0.10;99.90;;;;;;5052805;28;20504;-75
2022/03/20 06:06:16;;;;;;;59.47;32.70;;;0.00;99.90;;;;;;5062631;28;20428;-75
2022/03/20 06:08:41;;;;;;;45.00;28.20;;;0.10;99.90;;;;;;5069732;28;20025;-75
2022/03/20 06:11:09;;;;;;;43.20;26.10;;;0.20;99.90;;;;;;5055622;28;20101;-75
2022/03/20 06:13:35;;;;;;;38.03;22.73;;;0.30;99.90;;;;;;5056320;28;20028;-75
2022/03/20 06:16:01;;;;;;;40.13;24.20;;;0.30;99.90;;;;;;5061859;28;20021;-75
2022/03/20 06:18:27;;;;;;;36.07;24.47;;;0.40;99.90;;;;;;5058928;28;20069;-75
2022/03/20 06:20:54;;;;;;;37.40;24.17;;;0.60;99.90;;;;;;5058129;28;20028;-75
2022/03/20 06:23:19;;;;;;;44.50;26.40;;;0.80;99.90;;;;;;5052606;28;20048;-75
2022/03/20 06:25:45;;;;;;;47.17;30.13;;;0.90;99.90;;;;;;5054002;28;20044;-75
2022/03/20 06:28:11;;;;;;;36.93;24.77;;;1.00;99.90;;;;;;5052866;28;20059;-75
2022/03/20 06:30:36;;;;;;;35.13;21.83;;;1.20;99.90;;;;;;5054062;28;20028;-75
2022/03/20 06:33:02;;;;;;;33.83;21.13;;;1.40;99.90;;;;;;5064046;28;20496;-76
2022/03/20 06:35:28;;;;;;;30.67;20.07;;;1.40;99.90;;;;;;5057721;28;20070;-75
2022/03/20 06:37:54;;;;;;;37.47;23.03;;;1.50;99.90;;;;;;5059875;28;20025;-75
2022/03/20 06:40:20;;;;;;;37.20;22.20;;;1.60;99.90;;;;;;5053029;28;20032;-76
2022/03/20 06:42:46;;;;;;;37.33;22.80;;;1.70;99.90;;;;;;5067359;28;20020;-77
2022/03/20 06:45:13;;;;;;;35.97;23.70;;;1.90;99.90;;;;;;5057396;28;20527;-77
2022/03/20 06:47:41;;;;;;;36.00;24.07;;;1.90;99.90;;;;;;5057045;28;20136;-76
2022/03/20 06:50:08;;;;;;;34.83;22.47;;;2.00;99.90;;;;;;5061891;28;20021;-77
2022/03/20 06:52:34;;;;;;;34.00;22.40;;;2.10;99.90;;;;;;5060922;28;20449;-76
2022/03/20 06:55:02;;;;;;;36.63;21.80;;;2.10;99.90;;;;;;5054554;28;20039;-76
2022/03/20 06:57:28;;;;;;;35.13;22.63;;;2.10;99.90;;;;;;5072264;28;20079;-78
2022/03/20 06:59:56;;;;;;;33.27;21.47;;;2.30;99.90;;;;;;5060834;28;20032;-78
2022/03/20 07:02:23;;;;;;;33.70;21.93;;;2.30;99.90;;;;;;5066077;28;20028;-76
2022/03/20 07:04:51;;;;;;;34.57;22.20;;;2.40;99.90;;;;;;5073872;28;20355;-76
2022/03/20 07:07:17;;;;;;;32.27;20.90;;;2.50;99.90;;;;;;5073279;28;20029;-76
2022/03/20 07:09:43;;;;;;;37.23;21.90;;;2.60;99.90;;;;;;5066566;28;20369;-76
2022/03/20 07:12:11;;;;;;;34.77;21.23;;;2.80;99.90;;;;;;5053623;28;20045;-76
2022/03/20 07:14:37;;;;;;;34.60;21.93;;;3.10;99.90;;;;;;5052517;28;20032;-76
2022/03/20 07:17:05;;;;;;;32.90;22.47;;;3.20;99.90;;;;;;5053847;28;20032;-76
2022/03/20 07:19:31;;;;;;;31.83;20.60;;;3.30;99.90;;;;;;5054393;28;20381;-76
2022/03/20 07:21:57;;;;;;;32.40;20.33;;;3.50;99.90;;;;;;5053095;28;20032;-76
2022/03/20 07:24:23;;;;;;;29.70;20.03;;;3.50;99.90;;;;;;5053385;28;20036;-76
2022/03/20 07:29:33;;;;;;;31.13;19.90;;;3.80;99.90;;;;;;5052635;28;20039;-72
2022/03/20 07:32:04;;;;;;;31.63;20.57;;;3.90;99.90;;;;;;5052786;28;20021;-70
2022/03/20 07:34:30;;;;;;;30.37;19.77;;;4.00;99.90;;;;;;5049402;28;20083;-78
2022/03/20 07:36:56;;;;;;;33.10;20.87;;;4.20;99.90;;;;;;5047310;28;20033;-79
2022/03/20 07:39:22;;;;;;;34.73;23.00;;;4.30;99.90;;;;;;5049106;28;20059;-80
2022/03/20 07:41:47;;;;;;;32.97;21.07;;;4.40;99.90;;;;;;5050791;28;20061;-88
2022/03/20 07:44:13;;;;;;;31.70;20.33;;;4.70;99.90;;;;;;5049544;28;20071;-81
2022/03/20 07:46:40;;;;;;;31.37;20.70;;;4.80;99.90;;;;;;5052896;28;20128;-71
2022/03/20 07:49:07;;;;;;;29.87;20.67;;;4.90;99.90;;;;;;5052703;28;20043;-79
2022/03/20 07:51:34;;;;;;;28.97;19.33;;;5.00;99.90;;;;;;5050355;28;20021;-77
2022/03/20 07:54:00;;;;;;;27.87;20.47;;;5.10;99.90;;;;;;5058243;28;20116;-76
2022/03/20 07:56:28;;;;;;;31.63;21.23;;;5.20;99.90;;;;;;5050921;28;20100;-77
2022/03/20 07:58:57;;;;;;;29.80;20.43;;;5.40;99.90;;;;;;5056984;28;20187;-76
2022/03/20 08:01:24;;;;;;;29.17;19.20;;;5.60;99.90;;;;;;5062712;28;20431;-76
2022/03/20 08:03:52;;;;;;;29.30;19.10;;;5.60;99.90;;;;;;5064165;28;20024;-78
2022/03/20 08:06:35;;;;;;;34.37;22.73;;;5.80;99.90;;;;;;5056401;28;20021;-78
2022/03/20 08:09:00;;;;;;;29.93;20.63;;;5.90;99.90;;;;;;5059608;28;20060;-76
2022/03/20 08:11:27;;;;;;;30.37;20.20;;;6.00;99.90;;;;;;5058997;28;20396;-76
2022/03/20 08:13:53;;;;;;;29.00;19.50;;;6.10;99.90;;;;;;5056609;28;20442;-77
2022/03/20 08:16:20;;;;;;;27.37;20.03;;;6.10;99.90;;;;;;5054732;28;20025;-76
2022/03/20 08:18:46;;;;;;;29.33;19.73;;;6.10;99.90;;;;;;5050697;28;20048;-75
2022/03/20 08:21:12;;;;;;;32.10;21.70;;;6.20;99.90;;;;;;5052203;28;20445;-76
2022/03/20 08:23:42;;;;;;;31.10;20.33;;;6.20;99.90;;;;;;5049596;28;20110;-75
2022/03/20 08:26:08;;;;;;;28.93;19.20;;;6.40;99.90;;;;;;5056854;28;20082;-76
2022/03/20 08:28:47;;;;;;;30.17;19.57;;;6.50;99.90;;;;;;5060442;28;20033;-75
2022/03/20 08:31:14;;;;;;;27.83;19.40;;;6.60;99.90;;;;;;5065706;28;20024;-75
2022/03/20 08:33:40;;;;;;;29.03;20.37;;;6.80;99.90;;;;;;5068866;28;20028;-75
2022/03/20 08:36:07;;;;;;;31.93;20.67;;;6.80;99.90;;;;;;5056272;28;20021;-77
2022/03/20 08:38:33;;;;;;;28.83;19.50;;;6.90;99.90;;;;;;5053548;28;20033;-77
2022/03/20 08:41:00;;;;;;;31.87;20.27;;;6.90;99.90;;;;;;5053777;28;20021;-79
2022/03/20 08:43:26;;;;;;;27.73;20.57;;;6.90;99.90;;;;;;5052937;28;20036;-79
2022/03/20 08:45:51;;;;;;;26.67;18.53;;;6.90;99.90;;;;;;5053426;28;20494;-79
2022/03/20 08:48:20;;;;;;;29.27;20.03;;;7.10;99.90;;;;;;5051852;28;20114;-79
2022/03/20 08:50:49;;;;;;;27.80;20.40;;;7.50;99.90;;;;;;5051514;28;20052;-79
2022/03/20 08:53:19;;;;;;;30.00;19.23;;;7.50;99.90;;;;;;5044312;28;20043;-78
2022/03/20 08:55:46;;;;;;;27.37;19.13;;;7.70;99.90;;;;;;5052502;28;20370;-77
2022/03/20 08:58:11;;;;;;;29.13;18.27;;;8.10;99.90;;;;;;5044456;28;20412;-78
2022/03/20 09:00:37;;;;;;;33.00;22.20;;;8.30;99.90;;;;;;5041893;28;20029;-79
2022/03/20 09:03:03;;;;;;;24.93;18.23;;;8.40;99.90;;;;;;5050255;28;20073;-78
2022/03/20 09:05:29;;;;;;;29.13;20.70;;;8.70;99.90;;;;;;5051953;28;20029;-78
2022/03/20 09:07:57;;;;;;;28.43;20.07;;;8.60;99.90;;;;;;5052593;28;20037;-79
2022/03/20 09:10:24;;;;;;;37.83;25.53;;;8.50;99.90;;;;;;5052475;28;20025;-79
2022/03/20 09:12:51;;;;;;;28.03;18.80;;;8.80;99.90;;;;;;5051202;28;20085;-79
2022/03/20 09:15:17;;;;;;;28.00;19.50;;;8.80;99.90;;;;;;5050694;28;20525;-79
2022/03/20 09:20:30;;;;;;;41.53;24.90;;;9.40;99.90;;;;;;5048695;28;20388;-77
2022/03/20 09:22:56;;;;;;;44.70;26.13;;;9.70;99.90;;;;;;5056326;28;20047;-77
2022/03/20 09:25:22;;;;;;;69.93;35.03;;;10.10;99.40;;;;;;5052234;28;20051;-77
2022/03/20 09:27:48;;;;;;;43.77;25.70;;;10.50;98.60;;;;;;5050256;28;20029;-79
2022/03/20 09:30:17;;;;;;;26.33;18.50;;;10.50;98.20;;;;;;5052283;28;20437;-79
2022/03/20 09:32:43;;;;;;;48.37;26.73;;;10.80;97.50;;;;;;5050291;28;20025;-78
2022/03/20 09:35:09;;;;;;;25.33;18.13;;;11.00;96.80;;;;;;5051445;28;20083;-78
2022/03/20 09:37:35;;;;;;;31.60;19.67;;;11.30;95.20;;;;;;5050288;28;20036;-78
2022/03/20 09:40:02;;;;;;;28.77;18.30;;;11.40;95.00;;;;;;5051573;28;20078;-79
2022/03/20 09:42:28;;;;;;;45.60;27.67;;;11.20;93.70;;;;;;5051186;28;20111;-79
2022/03/20 09:44:54;;;;;;;51.73;31.00;;;11.30;93.90;;;;;;5054462;28;20804;-79
2022/03/20 09:47:23;;;;;;;44.33;27.02;;;11.30;94.30;;;;;;5063230;28;20048;-78
2022/03/20 09:49:49;;;;;;;29.67;19.92;;;11.90;92.10;;;;;;5053320;28;20141;-77
2022/03/20 09:52:17;;;;;;;29.65;18.23;;;12.10;91.30;;;;;;5054000;28;20028;-77
2022/03/20 09:54:43;;;;;;;32.28;20.77;;;12.30;90.00;;;;;;5053563;28;20025;-77
2022/03/20 09:57:10;;;;;;;23.02;17.48;;;12.30;88.70;;;;;;5052839;28;20483;-77
2022/03/20 09:59:38;;;;;;;32.72;21.00;;;12.60;88.90;;;;;;5052694;28;20028;-77
2022/03/20 10:02:05;;;;;;;37.85;25.80;;;12.50;90.50;;;;;;5053266;28;20552;-76
2022/03/20 10:04:34;;;;;;;35.65;23.13;;;12.70;86.20;;;;;;5053261;28;20096;-80
2022/03/20 10:07:00;;;;;;;31.33;22.23;;;12.70;86.60;;;;;;5050431;28;20041;-81
2022/03/20 10:09:26;;;;;;;37.83;26.98;;;12.70;87.20;;;;;;5050551;28;20412;-80
2022/03/20 10:11:57;;;;;;;25.58;18.50;;;12.80;86.20;;;;;;5049286;28;20166;-80
2022/03/20 10:14:26;;;;;;;22.52;16.42;;;13.10;86.20;;;;;;5063224;28;20357;-81
2022/03/20 10:17:07;;;;;;;28.70;20.95;;;13.40;85.30;;;;;;5061221;28;20017;-81
2022/03/20 10:19:34;;;;;;;24.48;17.77;;;13.80;82.90;;;;;;5051741;28;20052;-81
2022/03/20 10:22:04;;;;;;;26.13;20.48;;;13.80;83.00;;;;;;5051812;28;20067;-81
2022/03/20 10:24:31;;;;;;;24.08;16.50;;;14.00;82.60;;;;;;5051684;28;20385;-81
2022/03/20 10:26:59;;;;;;;20.70;16.13;;;14.30;80.90;;;;;;5051244;28;20037;-81
2022/03/20 10:29:27;;;;;;;23.25;15.38;;;14.30;78.00;;;;;;5051754;28;20049;-81
2022/03/20 10:31:54;;;;;;;22.55;15.27;;;14.50;77.00;;;;;;5051553;28;20134;-78
2022/03/20 10:34:21;;;;;;;23.10;15.30;;;14.90;75.20;;;;;;5050921;28;20076;-78
2022/03/20 10:36:48;;;;;;;20.40;15.63;;;15.00;76.30;;;;;;5052890;28;20473;-78
2022/03/20 10:39:17;;;;;;;21.63;15.30;;;15.20;73.60;;;;;;5051519;28;20366;-78
2022/03/20 10:41:45;;;;;;;19.27;14.15;;;14.90;74.10;;;;;;5053320;28;20104;-79
2022/03/20 10:44:27;;;;;;;20.77;14.40;;;15.00;71.70;;;;;;5052836;28;20017;-78
2022/03/20 10:47:02;;;;;;;19.00;15.00;;;15.00;71.50;;;;;;5051526;28;20044;-78
2022/03/20 10:49:28;;;;;;;19.75;15.05;;;15.10;73.30;;;;;;5053299;28;20021;-79
2022/03/20 10:52:07;;;;;;;19.77;14.85;;;15.30;69.90;;;;;;5052741;28;20025;-78
2022/03/20 10:54:39;;;;;;;20.70;15.02;;;15.40;69.10;;;;;;5053430;28;20033;-79
2022/03/20 10:57:06;;;;;;;22.35;17.17;;;15.40;69.60;;;;;;5051347;28;20025;-78
2022/03/20 10:59:32;;;;;;;19.17;15.05;;;15.50;69.60;;;;;;5047757;28;20103;-78
2022/03/20 11:01:59;;;;;;;21.65;14.57;;;15.40;68.30;;;;;;5051019;28;20116;-78
2022/03/20 11:04:25;;;;;;;20.45;15.30;;;15.60;68.10;;;;;;5052234;28;20087;-78
2022/03/20 11:06:54;;;;;;;20.70;14.93;;;15.70;66.70;;;;;;5052924;28;20064;-78
2022/03/20 11:09:20;;;;;;;20.73;16.33;;;15.70;68.00;;;;;;5053091;28;20090;-78
2022/03/20 11:11:51;;;;;;;19.98;15.32;;;15.90;66.40;;;;;;5051558;28;20029;-78
2022/03/20 11:14:22;;;;;;;19.17;13.85;;;15.70;66.50;;;;;;5051606;28;20033;-78
2022/03/20 11:17:06;;;;;;;18.67;14.52;;;16.00;68.60;;;;;;5052931;28;20025;-78
2022/03/20 11:19:34;;;;;;;20.27;13.65;;;16.10;66.10;;;;;;5052952;28;20028;-78
2022/03/20 11:22:03;;;;;;;18.05;14.57;;;16.10;66.80;;;;;;5051971;28;20377;-78
2022/03/20 11:24:29;;;;;;;17.95;13.65;;;16.30;64.20;;;;;;5053298;28;20029;-78
2022/03/20 11:26:59;;;;;;;18.88;14.38;;;16.50;64.90;;;;;;5052895;28;20041;-77
2022/03/20 11:29:26;;;;;;;20.55;14.40;;;16.30;63.70;;;;;;5052990;28;20458;-77
2022/03/20 11:31:53;;;;;;;18.58;14.15;;;16.30;62.90;;;;;;5053222;28;20088;-77
2022/03/20 11:34:19;;;;;;;17.45;12.65;;;16.10;62.60;;;;;;5051070;28;20076;-74
2022/03/20 11:37:04;;;;;;;18.15;13.90;;;16.10;63.40;;;;;;5051059;28;20071;-74
2022/03/20 11:39:30;;;;;;;15.80;12.68;;;16.10;63.30;;;;;;5049146;28;20025;-73
2022/03/20 11:42:30;;;;;;;18.27;13.00;;;16.40;62.00;;;;;;5050206;28;20029;-73
2022/03/20 11:44:58;;;;;;;17.00;13.63;;;16.20;62.50;;;;;;5049546;28;20033;-74
2022/03/20 11:47:29;;;;;;;21.40;14.50;;;16.40;63.30;;;;;;5048666;28;20151;-73
2022/03/20 11:50:27;;;;;;;17.42;13.80;;;16.50;63.30;;;;;;5052340;28;20037;-74
2022/03/20 11:53:00;;;;;;;19.85;13.45;;;16.90;61.40;;;;;;5047128;28;20478;-72
2022/03/20 11:55:29;;;;;;;20.60;13.90;;;16.90;60.30;;;;;;5032743;28;20030;-73
2022/03/20 11:57:57;;;;;;;18.85;13.98;;;16.70;59.90;;;;;;5042037;28;20029;-73
2022/03/20 12:00:29;;;;;;;17.63;13.70;;;16.90;60.30;;;;;;5045501;28;20458;-74
2022/03/20 12:03:13;;;;;;;17.95;13.68;;;16.60;61.40;;;;;;5030454;28;20036;-73
2022/03/20 12:05:41;;;;;;;18.80;14.15;;;16.70;61.10;;;;;;5044470;28;20032;-73
2022/03/20 12:08:41;;;;;;;17.83;13.73;;;16.40;59.50;;;;;;5049721;28;20382;-73
2022/03/20 12:11:35;;;;;;;18.73;14.27;;;17.10;58.40;;;;;;5050373;28;20036;-73
2022/03/20 12:14:15;;;;;;;18.58;11.65;;;17.00;57.40;;;;;;5045761;28;20037;-72
2022/03/20 12:16:50;;;;;;;16.30;12.30;;;16.90;56.30;;;;;;5049643;28;20033;-72
2022/03/20 12:19:18;;;;;;;17.75;11.88;;;16.90;57.40;;;;;;5050625;28;20021;-73
2022/03/20 12:21:57;;;;;;;19.33;13.30;;;17.00;57.00;;;;;;5050041;28;20417;-72
2022/03/20 12:24:35;;;;;;;18.63;14.52;;;16.90;58.00;;;;;;5048715;28;20040;-72
2022/03/20 12:27:25;;;;;;;16.40;13.13;;;16.90;57.40;;;;;;5050278;28;20108;-71
2022/03/20 12:30:21;;;;;;;17.13;13.25;;;17.20;56.70;;;;;;5046764;28;20032;-70
2022/03/20 12:32:47;;;;;;;18.67;13.82;;;17.20;57.60;;;;;;5049814;28;20021;-70
2022/03/20 12:35:15;;;;;;;22.35;19.15;;;17.30;57.40;;;;;;5049251;28;20351;-70
2022/03/20 12:37:43;;;;;;;16.20;12.00;;;17.20;56.20;;;;;;5047136;28;20025;-71
2022/03/20 12:40:29;;;;;;;19.25;13.70;;;17.60;55.50;;;;;;5048822;28;20025;-70
2022/03/20 12:43:08;;;;;;;66.13;59.47;;;17.70;55.30;;;;;;5042822;28;20028;-79
2022/03/20 12:45:36;;;;;;;23.60;18.00;;;17.60;55.80;;;;;;5049065;28;20380;-73
2022/03/20 12:48:05;;;;;;;18.80;12.77;;;17.30;54.60;;;;;;5043985;28;20535;-74
2022/03/20 12:50:36;;;;;;;16.30;11.98;;;17.60;54.90;;;;;;5050102;28;20381;-75
2022/03/20 12:53:06;;;;;;;15.07;11.38;;;17.70;55.30;;;;;;5052346;28;20021;-74
2022/03/20 12:55:32;;;;;;;16.45;12.52;;;17.80;55.10;;;;;;5052438;28;20025;-73
2022/03/20 12:57:58;;;;;;;14.32;11.68;;;17.60;54.60;;;;;;5049771;28;20036;-73
2022/03/20 13:00:28;;;;;;;16.13;11.80;;;17.60;54.20;;;;;;5045424;28;20028;-73
2022/03/20 13:03:01;;;;;;;15.20;11.63;;;17.50;54.80;;;;;;5050494;28;20025;-73
2022/03/20 13:05:28;;;;;;;14.68;12.23;;;17.40;55.80;;;;;;5053343;28;20024;-73
2022/03/20 13:07:55;;;;;;;15.68;12.38;;;17.50;55.10;;;;;;5051777;28;20090;-73
2022/03/20 13:10:22;;;;;;;16.00;11.85;;;17.70;55.20;;;;;;5051036;28;20021;-72
2022/03/20 13:12:52;;;;;;;18.58;12.13;;;17.70;55.50;;;;;;5049980;28;20386;-74